createdAt,value
2017-07-15T00:00:10.979Z,13.58
2017-07-15T00:01:26.976Z,13.7
2017-07-15T00:02:42.480Z,13.58
2017-07-15T00:03:57.935Z,13.63
2017-07-15T00:05:13.431Z,13.63
2017-07-15T00:06:29.156Z,13.74
2017-07-15T00:07:43.577Z,13.64
2017-07-15T00:08:59.021Z,13.69
2017-07-15T00:10:14.523Z,13.76
2017-07-15T00:11:29.004Z,13.74
2017-07-15T00:12:44.467Z,13.73
2017-07-15T00:13:59.934Z,13.73
2017-07-15T00:15:15.342Z,13.7
2017-07-15T00:16:31.011Z,13.7
2017-07-15T00:17:47.134Z,13.71
2017-07-15T00:19:01.429Z,13.71
2017-07-15T00:20:17.024Z,13.66
2017-07-15T00:21:32.740Z,13.74
2017-07-15T00:22:48.231Z,13.64
2017-07-15T00:24:03.676Z,13.64
2017-07-15T00:25:19.110Z,13.64
2017-07-15T00:26:35.025Z,13.56
2017-07-15T00:27:50.604Z,13.58
2017-07-15T00:29:06.095Z,13.55
2017-07-15T00:30:21.489Z,13.66
2017-07-15T00:31:37.381Z,13.61
2017-07-15T00:32:52.829Z,13.58
2017-07-15T00:34:08.277Z,13.69
2017-07-15T00:35:23.724Z,13.59
2017-07-15T00:36:38.152Z,13.58
2017-07-15T00:37:52.355Z,13.64
2017-07-15T00:39:07.858Z,13.63
2017-07-15T00:40:23.310Z,13.71
2017-07-15T00:41:37.608Z,13.77
2017-07-15T00:42:53.027Z,13.71
2017-07-15T00:44:08.087Z,13.71
2017-07-15T00:45:23.743Z,13.59
2017-07-15T00:46:39.446Z,13.74
2017-07-15T00:47:54.935Z,13.66
2017-07-15T00:49:10.387Z,13.77
2017-07-15T00:50:24.402Z,13.59
2017-07-15T00:51:40.252Z,13.59
2017-07-15T00:52:55.319Z,13.63
2017-07-15T00:54:10.769Z,13.61
2017-07-15T00:55:26.252Z,13.69
2017-07-15T00:56:41.941Z,13.63
2017-07-15T00:57:56.095Z,13.61
2017-07-15T00:59:10.220Z,13.64
2017-07-15T01:00:25.661Z,13.59
2017-07-15T01:01:41.106Z,13.61
2017-07-15T01:02:56.790Z,13.56
2017-07-15T01:04:10.920Z,13.67
2017-07-15T01:05:26.350Z,13.58
2017-07-15T01:06:41.819Z,13.55
2017-07-15T01:07:57.575Z,13.58
2017-07-15T01:09:12.990Z,13.56
2017-07-15T01:10:28.729Z,13.56
2017-07-15T01:11:42.913Z,13.56
2017-07-15T01:12:57.148Z,13.64
2017-07-15T01:14:12.586Z,13.55
2017-07-15T01:15:28.078Z,13.54
2017-07-15T01:16:43.531Z,13.52
2017-07-15T01:17:59.234Z,13.55
2017-07-15T01:19:14.707Z,13.49
2017-07-15T01:20:30.145Z,13.54
2017-07-15T01:21:44.286Z,13.54
2017-07-15T01:22:59.987Z,13.54
2017-07-15T01:24:16.015Z,13.56
2017-07-15T01:25:31.467Z,13.55
2017-07-15T01:26:46.954Z,13.51
2017-07-15T01:28:02.616Z,13.58
2017-07-15T01:29:18.082Z,13.54
2017-07-15T01:30:33.791Z,13.56
2017-07-15T01:31:49.255Z,13.52
2017-07-15T01:33:18.471Z,13.58
2017-07-15T01:34:34.187Z,13.56
2017-07-15T01:35:49.598Z,13.55
2017-07-15T01:37:05.043Z,13.49
2017-07-15T01:38:20.711Z,13.51
2017-07-15T01:39:34.865Z,13.51
2017-07-15T01:40:50.356Z,13.51
2017-07-15T01:42:05.801Z,13.48
2017-07-15T01:43:21.473Z,13.58
2017-07-15T01:44:36.949Z,13.58
2017-07-15T01:45:52.628Z,13.49
2017-07-15T01:47:08.110Z,13.49
2017-07-15T01:48:23.816Z,13.48
2017-07-15T01:49:39.304Z,13.48
2017-07-15T01:50:54.735Z,13.46
2017-07-15T01:52:10.173Z,13.44
2017-07-15T01:53:26.010Z,13.48
2017-07-15T01:54:41.451Z,13.49
2017-07-15T01:55:56.930Z,13.48
2017-07-15T01:57:12.343Z,13.45
2017-07-15T01:58:28.087Z,13.46
2017-07-15T01:59:43.530Z,13.46
2017-07-15T02:00:57.664Z,13.44
2017-07-15T02:02:13.134Z,13.48
2017-07-15T02:03:28.823Z,13.46
2017-07-15T02:04:44.293Z,13.46
2017-07-15T02:05:59.758Z,13.56
2017-07-15T02:07:13.877Z,13.55
2017-07-15T02:08:29.537Z,13.56
2017-07-15T02:09:44.969Z,13.52
2017-07-15T02:11:00.425Z,13.49
2017-07-15T02:12:16.001Z,13.61
2017-07-15T02:13:31.665Z,13.55
2017-07-15T02:14:47.131Z,13.46
2017-07-15T02:16:02.563Z,13.49
2017-07-15T02:17:16.717Z,13.52
2017-07-15T02:18:32.479Z,13.55
2017-07-15T02:19:47.990Z,13.52
2017-07-15T02:21:03.450Z,13.49
2017-07-15T02:22:19.005Z,13.46
2017-07-15T02:23:34.790Z,13.49
2017-07-15T02:24:50.242Z,13.52
2017-07-15T02:26:05.665Z,13.48
2017-07-15T02:27:21.150Z,13.46
2017-07-15T02:28:36.843Z,13.49
2017-07-15T02:30:05.912Z,13.48
2017-07-15T02:31:21.343Z,13.44
2017-07-15T02:32:37.228Z,13.51
2017-07-15T02:33:53.073Z,13.46
2017-07-15T02:35:07.217Z,13.44
2017-07-15T02:36:22.607Z,13.49
2017-07-15T02:37:38.362Z,13.54
2017-07-15T02:38:53.866Z,13.48
2017-07-15T02:40:09.339Z,13.52
2017-07-15T02:41:24.938Z,13.54
2017-07-15T02:42:40.736Z,13.52
2017-07-15T02:43:56.364Z,13.63
2017-07-15T02:45:10.394Z,13.49
2017-07-15T02:46:25.863Z,13.58
2017-07-15T02:47:41.598Z,13.56
2017-07-15T02:48:55.739Z,13.56
2017-07-15T02:50:11.539Z,13.56
2017-07-15T02:51:26.961Z,13.56
2017-07-15T02:52:42.819Z,13.54
2017-07-15T02:53:58.308Z,13.54
2017-07-15T02:55:12.425Z,13.64
2017-07-15T02:56:27.909Z,13.55
2017-07-15T02:57:42.444Z,13.64
2017-07-15T02:58:58.259Z,13.59
2017-07-15T03:00:13.677Z,13.61
2017-07-15T03:01:29.080Z,13.63
2017-07-15T03:02:44.818Z,13.58
2017-07-15T03:04:00.223Z,13.54
2017-07-15T03:05:15.634Z,13.64
2017-07-15T03:06:31.021Z,13.67
2017-07-15T03:07:46.696Z,13.66
2017-07-15T03:09:02.237Z,13.56
2017-07-15T03:10:17.650Z,13.66
2017-07-15T03:11:33.245Z,13.59
2017-07-15T03:12:49.313Z,13.63
2017-07-15T03:14:04.785Z,13.55
2017-07-15T03:15:20.696Z,13.71
2017-07-15T03:16:34.785Z,13.56
2017-07-15T03:17:50.333Z,13.49
2017-07-15T03:19:06.005Z,13.52
2017-07-15T03:20:21.455Z,13.56
2017-07-15T03:21:36.663Z,13.52
2017-07-15T03:22:52.027Z,13.58
2017-07-15T03:24:07.450Z,13.63
2017-07-15T03:25:21.521Z,13.69
2017-07-15T03:26:37.022Z,13.56
2017-07-15T03:28:05.923Z,13.63
2017-07-15T03:29:21.390Z,13.56
2017-07-15T03:30:35.529Z,13.66
2017-07-15T03:31:51.016Z,13.59
2017-07-15T03:33:07.011Z,13.58
2017-07-15T03:34:22.479Z,13.56
2017-07-15T03:35:37.904Z,13.66
2017-07-15T03:36:53.359Z,13.59
2017-07-15T03:38:09.016Z,13.58
2017-07-15T03:39:24.573Z,13.66
2017-07-15T03:40:39.837Z,13.64
2017-07-15T03:41:55.293Z,13.56
2017-07-15T03:43:11.214Z,13.54
2017-07-15T03:44:27.096Z,13.56
2017-07-15T03:45:42.542Z,13.59
2017-07-15T03:46:56.864Z,13.54
2017-07-15T03:48:12.536Z,13.46
2017-07-15T03:49:26.645Z,13.51
2017-07-15T03:50:42.076Z,13.46
2017-07-15T03:51:57.669Z,13.46
2017-07-15T03:53:11.889Z,13.49
2017-07-15T03:54:27.683Z,13.55
2017-07-15T03:55:43.132Z,13.48
2017-07-15T03:56:57.337Z,13.46
2017-07-15T03:58:11.866Z,13.45
2017-07-15T03:59:27.562Z,13.41
2017-07-15T04:00:42.962Z,13.49
2017-07-15T04:01:58.619Z,13.51
2017-07-15T04:03:14.222Z,13.46
2017-07-15T04:04:29.926Z,13.45
2017-07-15T04:05:59.183Z,13.51
2017-07-15T04:07:14.538Z,13.54
2017-07-15T04:08:30.207Z,13.45
2017-07-15T04:09:45.683Z,13.46
2017-07-15T04:11:01.107Z,13.46
2017-07-15T04:12:16.658Z,13.56
2017-07-15T04:13:30.901Z,13.58
2017-07-15T04:14:46.373Z,13.55
2017-07-15T04:16:01.811Z,13.55
2017-07-15T04:17:14.621Z,13.52
2017-07-15T04:18:30.020Z,13.54
2017-07-15T04:19:45.523Z,13.51
2017-07-15T04:21:01.079Z,13.58
2017-07-15T04:22:16.547Z,13.54
2017-07-15T04:23:32.489Z,13.56
2017-07-15T04:24:47.909Z,13.54
2017-07-15T04:26:03.363Z,13.55
2017-07-15T04:27:18.790Z,13.58
2017-07-15T04:28:34.474Z,13.64
2017-07-15T04:29:49.899Z,13.61
2017-07-15T04:31:05.363Z,13.61
2017-07-15T04:32:20.826Z,13.63
2017-07-15T04:33:36.666Z,13.69
2017-07-15T04:34:52.103Z,13.63
2017-07-15T04:36:07.617Z,13.56
2017-07-15T04:37:23.074Z,13.59
2017-07-15T04:38:37.428Z,13.59
2017-07-15T04:39:52.843Z,13.58
2017-07-15T04:41:08.347Z,13.59
2017-07-15T04:42:23.749Z,13.69
2017-07-15T04:43:39.388Z,13.58
2017-07-15T04:44:52.570Z,13.64
2017-07-15T04:46:08.048Z,13.63
2017-07-15T04:47:23.686Z,13.67
2017-07-15T04:48:39.405Z,13.71
2017-07-15T04:49:54.501Z,13.61
2017-07-15T04:51:10.044Z,13.56
2017-07-15T04:52:25.483Z,13.69
2017-07-15T04:53:41.174Z,13.7
2017-07-15T04:54:56.783Z,13.74
2017-07-15T04:56:12.434Z,13.67
2017-07-15T04:57:27.852Z,13.7
2017-07-15T04:58:43.549Z,13.76
2017-07-15T04:59:59.014Z,13.69
2017-07-15T05:01:14.759Z,13.7
2017-07-15T05:02:30.241Z,13.66
2017-07-15T05:03:45.981Z,13.66
2017-07-15T05:04:58.838Z,13.67
2017-07-15T05:06:13.881Z,13.64
2017-07-15T05:07:29.302Z,13.73
2017-07-15T05:08:44.989Z,13.76
2017-07-15T05:10:00.682Z,13.74
2017-07-15T05:11:16.156Z,13.79
2017-07-15T05:12:31.601Z,13.79
2017-07-15T05:13:47.218Z,13.73
2017-07-15T05:15:03.121Z,13.77
2017-07-15T05:16:18.545Z,13.71
2017-07-15T05:17:33.977Z,13.74
2017-07-15T05:18:49.442Z,13.71
2017-07-15T05:20:05.198Z,13.71
2017-07-15T05:21:19.338Z,13.77
2017-07-15T05:22:34.956Z,13.66
2017-07-15T05:23:50.384Z,13.58
2017-07-15T05:25:06.217Z,13.69
2017-07-15T05:26:21.509Z,13.59
2017-07-15T05:27:36.719Z,13.63
2017-07-15T05:28:52.133Z,13.61
2017-07-15T05:30:07.825Z,13.55
2017-07-15T05:31:21.814Z,13.71
2017-07-15T05:32:37.352Z,13.7
2017-07-15T05:33:51.461Z,13.74
2017-07-15T05:35:05.481Z,13.69
2017-07-15T05:36:21.189Z,13.73
2017-07-15T05:37:36.826Z,13.76
2017-07-15T05:38:52.297Z,13.67
2017-07-15T05:40:08.012Z,13.73
2017-07-15T05:41:23.534Z,13.69
2017-07-15T05:42:39.002Z,13.63
2017-07-15T05:43:54.500Z,13.63
2017-07-15T05:45:10.225Z,13.64
2017-07-15T05:46:25.705Z,13.66
2017-07-15T05:47:41.115Z,13.63
2017-07-15T05:48:56.771Z,13.63
2017-07-15T05:50:12.430Z,13.66
2017-07-15T05:51:27.869Z,13.64
2017-07-15T05:52:43.486Z,13.63
2017-07-15T05:53:58.968Z,13.73
2017-07-15T05:55:14.686Z,13.71
2017-07-15T05:56:30.128Z,13.79
2017-07-15T05:57:45.659Z,13.82
2017-07-15T05:59:01.441Z,13.82
2017-07-15T06:00:17.080Z,13.92
2017-07-15T06:01:32.540Z,13.94
2017-07-15T06:02:48.176Z,13.99
2017-07-15T06:04:03.235Z,14.03
2017-07-15T06:05:18.972Z,14.06
2017-07-15T06:06:34.457Z,13.96
2017-07-15T06:07:49.887Z,14
2017-07-15T06:09:04.079Z,14.11
2017-07-15T06:10:19.813Z,14.11
2017-07-15T06:11:35.458Z,14.1
2017-07-15T06:12:50.935Z,14.14
2017-07-15T06:14:06.359Z,14.14
2017-07-15T06:15:21.968Z,14.13
2017-07-15T06:16:37.415Z,14.11
2017-07-15T06:17:52.867Z,14.13
2017-07-15T06:19:08.333Z,14.13
2017-07-15T06:20:24.018Z,14.14
2017-07-15T06:21:39.500Z,14.1
2017-07-15T06:22:55.215Z,14.13
2017-07-15T06:24:10.805Z,14.11
2017-07-15T06:25:25.276Z,14.06
2017-07-15T06:26:39.432Z,14.13
2017-07-15T06:27:54.494Z,14.13
2017-07-15T06:29:09.935Z,14.13
2017-07-15T06:30:25.601Z,14.16
2017-07-15T06:31:41.040Z,14.09
2017-07-15T06:32:56.612Z,14.1
2017-07-15T06:34:12.261Z,14.06
2017-07-15T06:35:27.948Z,14.04
2017-07-15T06:36:43.401Z,14.02
2017-07-15T06:37:57.784Z,14.13
2017-07-15T06:39:13.188Z,14.02
2017-07-15T06:40:28.920Z,14.21
2017-07-15T06:41:44.372Z,14.11
2017-07-15T06:43:00.193Z,14.21
2017-07-15T06:44:15.647Z,14.13
2017-07-15T06:45:31.323Z,14.28
2017-07-15T06:46:46.820Z,14.24
2017-07-15T06:48:02.269Z,14.37
2017-07-15T06:49:17.922Z,14.51
2017-07-15T06:50:33.637Z,14.52
2017-07-15T06:52:02.684Z,14.66
2017-07-15T06:53:18.299Z,14.75
2017-07-15T06:54:33.745Z,14.74
2017-07-15T06:55:49.485Z,14.83
2017-07-15T06:57:04.985Z,14.84
2017-07-15T06:58:20.464Z,14.9
2017-07-15T06:59:34.633Z,14.95
2017-07-15T07:00:50.392Z,14.95
2017-07-15T07:02:05.899Z,14.96
2017-07-15T07:03:21.414Z,14.84
2017-07-15T07:04:36.886Z,14.84
2017-07-15T07:05:52.594Z,14.88
2017-07-15T07:07:08.029Z,14.87
2017-07-15T07:08:22.380Z,14.85
2017-07-15T07:09:37.817Z,14.87
2017-07-15T07:10:53.538Z,14.93
2017-07-15T07:12:08.953Z,14.95
2017-07-15T07:13:24.388Z,14.9
2017-07-15T07:14:39.843Z,14.9
2017-07-15T07:15:55.577Z,14.9
2017-07-15T07:17:11.414Z,14.87
2017-07-15T07:18:26.839Z,14.95
2017-07-15T07:19:42.276Z,14.93
2017-07-15T07:20:56.712Z,14.85
2017-07-15T07:22:12.358Z,14.84
2017-07-15T07:23:27.463Z,14.84
2017-07-15T07:24:56.494Z,14.85
2017-07-15T07:26:12.193Z,14.95
2017-07-15T07:27:27.647Z,14.99
2017-07-15T07:28:43.149Z,15.03
2017-07-15T07:30:12.185Z,15.08
2017-07-15T07:31:27.906Z,15.18
2017-07-15T07:32:43.317Z,15.27
2017-07-15T07:33:58.760Z,15.2
2017-07-15T07:35:14.220Z,15.35
2017-07-15T07:36:29.925Z,15.4
2017-07-15T07:37:45.591Z,15.51
2017-07-15T07:39:01.041Z,15.55
2017-07-15T07:40:16.457Z,15.6
2017-07-15T07:41:32.352Z,15.75
2017-07-15T07:42:47.795Z,15.89
2017-07-15T07:44:03.187Z,15.95
2017-07-15T07:45:18.652Z,15.98
2017-07-15T07:46:47.943Z,15.94
2017-07-15T07:48:03.385Z,15.98
2017-07-15T07:49:18.806Z,15.92
2017-07-15T07:50:34.262Z,15.89
2017-07-15T07:51:49.970Z,15.84
2017-07-15T07:53:05.419Z,15.94
2017-07-15T07:54:20.833Z,15.98
2017-07-15T07:55:36.260Z,15.96
2017-07-15T07:56:52.090Z,16.07
2017-07-15T07:58:07.570Z,16.07
2017-07-15T07:59:23.032Z,16.07
2017-07-15T08:00:38.522Z,15.99
2017-07-15T08:01:54.258Z,15.96
2017-07-15T08:03:09.894Z,15.96
2017-07-15T08:04:24.203Z,16.02
2017-07-15T08:05:38.336Z,16.04
2017-07-15T08:06:54.024Z,16.06
2017-07-15T08:08:08.207Z,15.98
2017-07-15T08:09:23.502Z,15.79
2017-07-15T08:10:39.015Z,15.96
2017-07-15T08:12:08.330Z,15.94
2017-07-15T08:13:23.785Z,15.98
2017-07-15T08:14:39.220Z,15.98
2017-07-15T08:15:54.752Z,16.01
2017-07-15T08:17:10.417Z,16.02
2017-07-15T08:18:25.914Z,15.98
2017-07-15T08:19:41.388Z,16.1
2017-07-15T08:20:56.853Z,16.13
2017-07-15T08:22:12.555Z,16.11
2017-07-15T08:23:28.010Z,16.19
2017-07-15T08:24:43.422Z,16.21
2017-07-15T08:25:59.039Z,16.31
2017-07-15T08:27:14.888Z,16.42
2017-07-15T08:28:27.560Z,16.47
2017-07-15T08:29:43.051Z,16.39
2017-07-15T08:30:58.520Z,16.51
2017-07-15T08:32:14.252Z,16.71
2017-07-15T08:33:29.764Z,16.65
2017-07-15T08:34:45.217Z,16.64
2017-07-15T08:35:59.367Z,16.64
2017-07-15T08:37:15.092Z,16.69
2017-07-15T08:38:30.333Z,16.65
2017-07-15T08:39:45.785Z,16.68
2017-07-15T08:41:01.309Z,16.62
2017-07-15T08:42:17.014Z,16.57
2017-07-15T08:44:03.309Z,16.72
2017-07-15T08:45:18.935Z,16.8
2017-07-15T08:46:34.457Z,16.72
2017-07-15T08:47:50.175Z,16.91
2017-07-15T08:49:05.612Z,17.19
2017-07-15T08:50:21.309Z,17.5
2017-07-15T08:51:36.782Z,17.75
2017-07-15T08:52:52.437Z,17.98
2017-07-15T08:54:07.900Z,18.1
2017-07-15T08:55:23.142Z,18.32
2017-07-15T08:56:38.647Z,18.46
2017-07-15T08:57:54.338Z,18.62
2017-07-15T08:59:09.769Z,18.84
2017-07-15T09:00:25.260Z,18.88
2017-07-15T09:01:40.723Z,18.97
2017-07-15T09:02:56.634Z,19.33
2017-07-15T09:04:12.110Z,19.58
2017-07-15T09:05:27.527Z,19.85
2017-07-15T09:06:43.367Z,19.88
2017-07-15T09:07:59.054Z,19.83
2017-07-15T09:09:14.473Z,19.78
2017-07-15T09:10:29.944Z,19.63
2017-07-15T09:11:45.372Z,19.53
2017-07-15T09:13:01.106Z,19.28
2017-07-15T09:14:16.556Z,19.16
2017-07-15T09:15:32.032Z,18.97
2017-07-15T09:16:47.502Z,18.65
2017-07-15T09:18:01.773Z,18.38
2017-07-15T09:19:17.245Z,18.38
2017-07-15T09:20:32.829Z,18.26
2017-07-15T09:21:48.282Z,18.15
2017-07-15T09:23:02.628Z,17.98
2017-07-15T09:24:18.049Z,17.95
2017-07-15T09:25:33.671Z,17.91
2017-07-15T09:26:49.551Z,17.68
2017-07-15T09:28:04.908Z,17.73
2017-07-15T09:29:20.402Z,17.94
2017-07-15T09:30:35.979Z,18.04
2017-07-15T09:31:51.447Z,18.4
2017-07-15T09:33:07.406Z,18.63
2017-07-15T09:34:22.883Z,18.79
2017-07-15T09:35:38.374Z,18.87
2017-07-15T09:36:53.840Z,19.02
2017-07-15T09:38:09.677Z,19.09
2017-07-15T09:39:24.732Z,19
2017-07-15T09:40:38.918Z,18.87
2017-07-15T09:41:54.404Z,18.75
2017-07-15T09:43:10.154Z,18.65
2017-07-15T09:44:25.789Z,18.5
2017-07-15T09:45:41.206Z,18.41
2017-07-15T09:46:56.698Z,18.4
2017-07-15T09:48:12.539Z,18.19
2017-07-15T09:49:28.197Z,18.09
2017-07-15T09:50:44.123Z,18.09
2017-07-15T09:51:59.600Z,18.13
2017-07-15T09:53:15.318Z,18.38
2017-07-15T09:54:30.972Z,19.19
2017-07-15T09:55:46.445Z,19.9
2017-07-15T09:57:01.873Z,20.68
2017-07-15T09:58:17.576Z,21.43
2017-07-15T09:59:33.032Z,21.88
2017-07-15T10:00:48.489Z,21.93
2017-07-15T10:02:04.002Z,21.98
2017-07-15T10:03:19.754Z,21.97
2017-07-15T10:04:35.375Z,22.11
2017-07-15T10:05:50.879Z,21.94
2017-07-15T10:07:06.350Z,21.78
2017-07-15T10:08:22.245Z,21.71
2017-07-15T10:09:37.764Z,22.05
2017-07-15T10:10:53.438Z,22.39
2017-07-15T10:12:08.921Z,22.87
2017-07-15T10:13:38.196Z,23.51
2017-07-15T10:14:53.656Z,23.68
2017-07-15T10:16:09.162Z,23.39
2017-07-15T10:17:24.258Z,23.16
2017-07-15T10:18:38.671Z,23.01
2017-07-15T10:19:54.146Z,22.5
2017-07-15T10:21:09.263Z,22.31
2017-07-15T10:22:24.744Z,22.03
2017-07-15T10:23:40.416Z,21.86
2017-07-15T10:24:56.103Z,21.66
2017-07-15T10:26:11.565Z,21.5
2017-07-15T10:27:27.234Z,21.27
2017-07-15T10:28:43.023Z,21.19
2017-07-15T10:29:58.463Z,21.31
2017-07-15T10:31:13.985Z,21.73
2017-07-15T10:32:29.469Z,22.11
2017-07-15T10:33:45.222Z,22.43
2017-07-15T10:34:59.384Z,22.34
2017-07-15T10:36:14.857Z,22.24
2017-07-15T10:37:28.994Z,22.09
2017-07-15T10:38:43.604Z,21.87
2017-07-15T10:39:59.034Z,21.69
2017-07-15T10:41:14.481Z,21.54
2017-07-15T10:42:30.058Z,21.4
2017-07-15T10:43:45.974Z,21.3
2017-07-15T10:45:01.553Z,21.58
2017-07-15T10:46:17.054Z,21.98
2017-07-15T10:47:32.544Z,22.15
2017-07-15T10:48:48.315Z,22.48
2017-07-15T10:50:03.803Z,22.64
2017-07-15T10:51:19.327Z,22.82
2017-07-15T10:52:34.807Z,23.24
2017-07-15T10:53:50.530Z,23.61
2017-07-15T10:55:06.012Z,23.92
2017-07-15T10:56:21.773Z,24.25
2017-07-15T10:57:37.221Z,24.22
2017-07-15T10:58:52.938Z,24.44
2017-07-15T11:00:08.437Z,24.16
2017-07-15T11:01:24.012Z,24.05
2017-07-15T11:02:39.503Z,23.88
2017-07-15T11:03:55.157Z,23.69
2017-07-15T11:05:10.623Z,23.23
2017-07-15T11:06:26.082Z,22.9
2017-07-15T11:07:41.567Z,22.48
2017-07-15T11:08:57.347Z,22.16
2017-07-15T11:10:13.025Z,21.75
2017-07-15T11:11:28.534Z,21.56
2017-07-15T11:12:44.027Z,21.28
2017-07-15T11:13:59.878Z,21.08
2017-07-15T11:15:15.398Z,21.1
2017-07-15T11:16:30.854Z,21.25
2017-07-15T11:17:46.565Z,21.48
2017-07-15T11:19:02.436Z,21.83
2017-07-15T11:20:17.969Z,22.12
2017-07-15T11:21:33.655Z,22.45
2017-07-15T11:23:19.899Z,22.71
2017-07-15T11:24:34.462Z,23.01
2017-07-15T11:25:50.002Z,23.38
2017-07-15T11:27:05.431Z,23.18
2017-07-15T11:28:20.868Z,23.17
2017-07-15T11:29:36.639Z,22.89
2017-07-15T11:30:52.292Z,22.61
2017-07-15T11:32:07.808Z,22.48
2017-07-15T11:33:23.338Z,22.2
2017-07-15T11:34:39.325Z,22.26
2017-07-15T11:35:54.793Z,22.3
2017-07-15T11:37:10.269Z,22.63
2017-07-15T11:38:25.785Z,22.87
2017-07-15T11:39:41.562Z,23.24
2017-07-15T11:40:57.066Z,23.54
2017-07-15T11:42:12.186Z,23.82
2017-07-15T11:43:27.748Z,24.07
2017-07-15T11:44:43.459Z,24.19
2017-07-15T11:45:58.946Z,24.02
2017-07-15T11:47:14.414Z,24.05
2017-07-15T11:48:43.257Z,23.94
2017-07-15T11:49:57.639Z,23.95
2017-07-15T11:51:11.703Z,24.1
2017-07-15T11:52:27.197Z,24.27
2017-07-15T11:53:42.630Z,24.47
2017-07-15T11:54:58.588Z,24.63
2017-07-15T11:56:14.086Z,24.81
2017-07-15T11:57:29.588Z,24.97
2017-07-15T11:58:45.209Z,25.18
2017-07-15T12:00:00.944Z,25.28
2017-07-15T12:01:16.409Z,25.42
2017-07-15T12:02:31.533Z,25.61
2017-07-15T12:03:46.648Z,25.65
2017-07-15T12:05:02.712Z,25.69
2017-07-15T12:06:18.169Z,25.82
2017-07-15T12:07:33.697Z,25.96
2017-07-15T12:08:49.136Z,25.96
2017-07-15T12:10:05.071Z,25.82
2017-07-15T12:11:20.515Z,25.88
2017-07-15T12:12:36.042Z,25.74
2017-07-15T12:13:51.541Z,25.69
2017-07-15T12:15:07.332Z,25.69
2017-07-15T12:16:22.846Z,25.81
2017-07-15T12:17:37.052Z,25.82
2017-07-15T12:18:52.749Z,25.74
2017-07-15T12:20:08.483Z,25.69
2017-07-15T12:21:23.985Z,25.65
2017-07-15T12:22:39.459Z,25.61
2017-07-15T12:23:54.963Z,25.4
2017-07-15T12:25:10.662Z,25.25
2017-07-15T12:26:26.245Z,25.19
2017-07-15T12:27:40.459Z,25.18
2017-07-15T12:28:56.108Z,25.1
2017-07-15T12:30:12.145Z,24.97
2017-07-15T12:31:27.634Z,24.88
2017-07-15T12:32:43.071Z,24.81
2017-07-15T12:33:58.928Z,24.63
2017-07-15T12:35:14.822Z,24.69
2017-07-15T12:36:30.302Z,24.66
2017-07-15T12:37:45.768Z,24.62
2017-07-15T12:39:01.297Z,24.57
2017-07-15T12:40:17.061Z,24.45
2017-07-15T12:41:32.542Z,24.48
2017-07-15T12:42:48.043Z,24.47
2017-07-15T12:44:03.526Z,24.39
2017-07-15T12:45:19.276Z,24.22
2017-07-15T12:46:33.667Z,24.17
2017-07-15T12:47:48.710Z,24.22
2017-07-15T12:49:02.867Z,24.13
2017-07-15T12:50:18.688Z,24.13
2017-07-15T12:51:34.172Z,24.06
2017-07-15T12:52:49.712Z,23.95
2017-07-15T12:54:05.158Z,23.82
2017-07-15T12:55:20.861Z,23.76
2017-07-15T12:56:35.053Z,23.72
2017-07-15T12:57:50.622Z,23.57
2017-07-15T12:59:06.202Z,23.45
2017-07-15T13:00:21.982Z,23.35
2017-07-15T13:01:37.508Z,23.16
2017-07-15T13:02:53.085Z,23.21
2017-07-15T13:04:08.578Z,23.21
2017-07-15T13:05:23.044Z,23.02
2017-07-15T13:06:38.511Z,23.02
2017-07-15T13:07:53.666Z,22.96
2017-07-15T13:09:22.769Z,22.82
2017-07-15T13:10:38.556Z,22.64
2017-07-15T13:11:54.036Z,22.65
2017-07-15T13:13:09.512Z,22.42
2017-07-15T13:14:25.393Z,22.31
2017-07-15T13:15:41.391Z,22.2
2017-07-15T13:16:57.120Z,22.27
2017-07-15T13:18:12.674Z,22.18
2017-07-15T13:19:28.157Z,22.28
2017-07-15T13:20:44.120Z,22.18
2017-07-15T13:21:59.616Z,22.24
2017-07-15T13:23:13.807Z,22.27
2017-07-15T13:24:29.283Z,22.3
2017-07-15T13:25:45.045Z,22.42
2017-07-15T13:27:00.540Z,22.57
2017-07-15T13:28:16.018Z,22.63
2017-07-15T13:29:31.542Z,22.65
2017-07-15T13:30:47.236Z,22.73
2017-07-15T13:32:02.728Z,22.82
2017-07-15T13:33:18.248Z,22.8
2017-07-15T13:34:33.775Z,22.79
2017-07-15T13:35:49.735Z,22.9
2017-07-15T13:37:03.873Z,23.01
2017-07-15T13:38:19.292Z,23.01
2017-07-15T13:39:34.782Z,22.96
2017-07-15T13:40:50.526Z,22.82
2017-07-15T13:42:19.790Z,22.95
2017-07-15T13:43:35.311Z,22.8
2017-07-15T13:44:50.816Z,22.64
2017-07-15T13:46:06.530Z,22.61
2017-07-15T13:47:22.055Z,22.58
2017-07-15T13:48:37.847Z,22.43
2017-07-15T13:49:53.348Z,22.43
2017-07-15T13:51:09.123Z,22.55
2017-07-15T13:52:25.084Z,22.61
2017-07-15T13:53:40.542Z,22.61
2017-07-15T13:54:56.061Z,22.6
2017-07-15T13:56:11.760Z,22.64
2017-07-15T13:57:27.248Z,22.64
2017-07-15T13:58:42.421Z,22.65
2017-07-15T13:59:57.924Z,22.71
2017-07-15T14:01:13.691Z,22.7
2017-07-15T14:02:29.419Z,22.68
2017-07-15T14:03:44.900Z,22.53
2017-07-15T14:05:00.689Z,22.63
2017-07-15T14:06:16.641Z,22.6
2017-07-15T14:07:32.027Z,22.43
2017-07-15T14:08:47.748Z,22.48
2017-07-15T14:10:03.246Z,22.45
2017-07-15T14:11:18.988Z,22.45
2017-07-15T14:12:33.371Z,22.46
2017-07-15T14:13:49.030Z,22.39
2017-07-15T14:15:04.515Z,22.61
2017-07-15T14:16:18.911Z,22.53
2017-07-15T14:17:34.431Z,22.52
2017-07-15T14:18:49.944Z,22.67
2017-07-15T14:20:05.556Z,22.57
2017-07-15T14:21:21.288Z,22.68
2017-07-15T14:22:36.488Z,22.64
2017-07-15T14:23:51.932Z,22.68
2017-07-15T14:25:07.652Z,22.65
2017-07-15T14:26:23.065Z,22.67
2017-07-15T14:27:38.599Z,22.5
2017-07-15T14:28:54.023Z,22.58
2017-07-15T14:30:09.554Z,22.4
2017-07-15T14:31:25.302Z,22.46
2017-07-15T14:32:40.784Z,22.45
2017-07-15T14:33:56.279Z,22.4
2017-07-15T14:35:11.818Z,22.42
2017-07-15T14:36:27.562Z,22.46
2017-07-15T14:37:56.504Z,22.4
2017-07-15T14:39:11.971Z,22.45
2017-07-15T14:40:27.467Z,22.43
2017-07-15T14:41:43.170Z,22.43
2017-07-15T14:42:58.621Z,22.42
2017-07-15T14:44:14.082Z,22.28
2017-07-15T14:45:29.439Z,22.46
2017-07-15T14:46:45.157Z,22.39
2017-07-15T14:48:00.697Z,22.48
2017-07-15T14:49:16.200Z,22.42
2017-07-15T14:50:31.672Z,22.4
2017-07-15T14:51:47.427Z,22.46
2017-07-15T14:53:03.140Z,22.42
2017-07-15T14:54:18.328Z,22.39
2017-07-15T14:55:33.989Z,22.27
2017-07-15T14:56:49.947Z,22.26
2017-07-15T14:58:05.439Z,22.39
2017-07-15T14:59:21.167Z,22.33
2017-07-15T15:00:36.706Z,22.3
2017-07-15T15:01:52.468Z,22.34
2017-07-15T15:03:07.608Z,22.26
2017-07-15T15:04:36.694Z,22.23
2017-07-15T15:05:52.033Z,22.24
2017-07-15T15:07:07.768Z,22.27
2017-07-15T15:08:23.321Z,22.27
2017-07-15T15:09:38.826Z,22.18
2017-07-15T15:10:54.341Z,22.21
2017-07-15T15:12:10.239Z,22.27
2017-07-15T15:13:25.930Z,22.24
2017-07-15T15:14:41.636Z,22.15
2017-07-15T15:15:57.135Z,22.15
2017-07-15T15:17:12.846Z,22.11
2017-07-15T15:18:27.987Z,22.05
2017-07-15T15:19:43.114Z,22.02
2017-07-15T15:20:58.597Z,21.98
2017-07-15T15:22:14.320Z,21.98
2017-07-15T15:23:29.818Z,21.84
2017-07-15T15:24:45.322Z,21.86
2017-07-15T15:26:00.792Z,21.87
2017-07-15T15:27:16.496Z,21.83
2017-07-15T15:28:31.990Z,21.93
2017-07-15T15:29:47.461Z,21.87
2017-07-15T15:31:02.967Z,21.87
2017-07-15T15:32:18.704Z,21.84
2017-07-15T15:33:34.599Z,21.91
2017-07-15T15:34:48.811Z,21.84
2017-07-15T15:36:04.493Z,21.79
2017-07-15T15:37:18.888Z,21.78
2017-07-15T15:38:34.375Z,21.84
2017-07-15T15:39:49.811Z,21.86
2017-07-15T15:41:05.251Z,21.84
2017-07-15T15:42:19.644Z,21.84
2017-07-15T15:43:34.754Z,21.73
2017-07-15T15:44:50.497Z,21.71
2017-07-15T15:46:05.998Z,21.65
2017-07-15T15:47:20.384Z,21.57
2017-07-15T15:48:35.882Z,21.5
2017-07-15T15:49:51.352Z,21.38
2017-07-15T15:51:07.247Z,21.37
2017-07-15T15:52:22.958Z,21.4
2017-07-15T15:53:37.198Z,21.34
2017-07-15T15:54:52.680Z,21.4
2017-07-15T15:56:08.284Z,21.43
2017-07-15T15:57:24.233Z,21.46
2017-07-15T15:58:39.720Z,21.41
2017-07-15T15:59:53.948Z,21.34
2017-07-15T16:01:09.417Z,21.37
2017-07-15T16:02:25.145Z,21.35
2017-07-15T16:03:40.929Z,21.37
2017-07-15T16:04:56.417Z,21.41
2017-07-15T16:06:11.843Z,21.45
2017-07-15T16:07:27.349Z,21.37
2017-07-15T16:08:42.843Z,21.41
2017-07-15T16:09:58.367Z,21.56
2017-07-15T16:11:14.017Z,21.57
2017-07-15T16:12:29.788Z,21.58
2017-07-15T16:13:45.258Z,21.58
2017-07-15T16:15:00.734Z,21.56
2017-07-15T16:16:16.442Z,21.53
2017-07-15T16:17:32.305Z,21.53